createdAt,value
2022-10-26T00:00:52.504Z,15.41
2022-10-26T00:03:19.922Z,15.24
2022-10-26T00:05:46.844Z,15.14
2022-10-26T00:08:14.082Z,14.99
2022-10-26T00:10:41.140Z,15.00
2022-10-26T00:13:12.485Z,14.93
2022-10-26T00:15:42.958Z,14.96
2022-10-26T00:18:10.266Z,14.98
2022-10-26T00:20:37.212Z,14.91
2022-10-26T00:23:04.084Z,14.91
2022-10-26T00:25:31.077Z,14.92
2022-10-26T00:27:57.972Z,14.88
2022-10-26T00:30:25.302Z,14.87
2022-10-26T00:32:52.314Z,14.76
2022-10-26T00:35:23.913Z,14.67
2022-10-26T00:38:01.560Z,14.58
2022-10-26T00:40:29.425Z,14.52
2022-10-26T00:42:56.898Z,14.42
2022-10-26T00:45:30.037Z,14.44
2022-10-26T00:48:03.289Z,14.44
2022-10-26T00:50:43.756Z,14.34
2022-10-26T00:53:11.960Z,14.28
2022-10-26T00:55:44.949Z,14.25
2022-10-26T00:58:12.693Z,14.14
2022-10-26T01:00:41.023Z,14.10
2022-10-26T01:03:09.590Z,14.07
2022-10-26T01:05:40.258Z,14.01
2022-10-26T01:08:08.913Z,14.01
2022-10-26T01:10:39.077Z,13.99
2022-10-26T01:13:06.709Z,13.97
2022-10-26T01:15:42.831Z,13.95
2022-10-26T01:18:36.077Z,13.82
2022-10-26T01:21:20.865Z,13.73
2022-10-26T01:24:49.055Z,13.64
2022-10-26T01:27:35.993Z,13.62
2022-10-26T01:30:28.184Z,13.55
2022-10-26T01:33:22.539Z,13.55
2022-10-26T01:36:11.943Z,13.48
2022-10-26T01:38:47.736Z,13.46
2022-10-26T01:41:23.455Z,13.38
2022-10-26T01:43:59.823Z,13.24
2022-10-26T01:46:29.431Z,13.17
2022-10-26T01:49:01.876Z,13.15
2022-10-26T01:51:30.436Z,13.11
2022-10-26T01:53:58.554Z,13.10
2022-10-26T01:56:32.232Z,13.07
2022-10-26T01:59:31.233Z,13.06
2022-10-26T02:02:15.980Z,12.97
2022-10-26T02:04:57.473Z,12.97
2022-10-26T02:07:37.879Z,12.94
2022-10-26T02:10:23.025Z,12.83
2022-10-26T02:13:13.419Z,12.81
2022-10-26T02:15:47.601Z,12.93
2022-10-26T02:18:22.786Z,12.90
2022-10-26T02:20:54.205Z,12.86
2022-10-26T02:23:24.998Z,12.75
2022-10-26T02:25:56.922Z,12.81
2022-10-26T02:28:30.746Z,12.85
2022-10-26T02:30:59.824Z,12.91
2022-10-26T02:33:31.780Z,12.91
2022-10-26T02:36:03.157Z,12.88
2022-10-26T02:38:32.955Z,12.87
2022-10-26T02:41:01.320Z,12.86
2022-10-26T02:46:07.280Z,12.86
2022-10-26T02:48:34.338Z,12.78
2022-10-26T02:51:04.005Z,12.69
2022-10-26T02:53:40.581Z,12.64
2022-10-26T02:56:21.671Z,12.69
2022-10-26T02:58:53.438Z,12.66
2022-10-26T03:01:20.755Z,12.65
2022-10-26T03:03:48.516Z,12.64
2022-10-26T03:06:24.698Z,12.64
2022-10-26T03:08:51.692Z,12.65
2022-10-26T03:11:19.262Z,12.57
2022-10-26T03:13:46.329Z,12.58
2022-10-26T03:16:13.178Z,12.64
2022-10-26T03:18:40.171Z,12.53
2022-10-26T03:21:07.128Z,12.56
2022-10-26T03:23:34.078Z,12.59
2022-10-26T03:26:01.087Z,12.57
2022-10-26T03:28:27.978Z,12.65
2022-10-26T03:30:54.912Z,12.68
2022-10-26T03:33:25.608Z,12.70
2022-10-26T03:35:57.045Z,12.62
2022-10-26T03:38:24.397Z,12.60
2022-10-26T03:40:51.400Z,12.58
2022-10-26T03:43:18.343Z,12.57
2022-10-26T03:45:45.189Z,12.57
2022-10-26T03:48:12.274Z,12.55
2022-10-26T03:50:39.370Z,12.57
2022-10-26T03:53:06.671Z,12.56
2022-10-26T03:55:33.552Z,12.54
2022-10-26T03:58:00.406Z,12.51
2022-10-26T04:00:27.453Z,12.44
2022-10-26T04:02:59.929Z,12.38
2022-10-26T04:05:29.329Z,12.34
2022-10-26T04:07:58.094Z,12.35
2022-10-26T04:10:26.407Z,12.33
2022-10-26T04:12:54.442Z,12.37
2022-10-26T04:15:22.013Z,12.38
2022-10-26T04:17:49.205Z,12.44
2022-10-26T04:20:16.244Z,12.38
2022-10-26T04:22:43.124Z,12.38
2022-10-26T04:25:11.482Z,12.37
2022-10-26T04:27:38.411Z,12.40
2022-10-26T04:30:08.351Z,12.49
2022-10-26T04:32:35.202Z,12.40
2022-10-26T04:35:02.050Z,12.39
2022-10-26T04:37:29.061Z,12.39
2022-10-26T04:39:58.800Z,12.40
2022-10-26T04:42:25.731Z,12.40
2022-10-26T04:44:52.631Z,12.33
2022-10-26T04:47:19.516Z,12.31
2022-10-26T04:49:46.411Z,12.30
2022-10-26T04:52:13.530Z,12.29
2022-10-26T04:54:40.353Z,12.19
2022-10-26T04:57:07.461Z,12.26
2022-10-26T04:59:34.305Z,12.22
2022-10-26T05:02:01.284Z,12.24
2022-10-26T05:04:28.300Z,12.22
2022-10-26T05:06:55.162Z,12.22
2022-10-26T05:09:22.070Z,12.22
2022-10-26T05:11:48.968Z,12.24
2022-10-26T05:14:16.084Z,12.31
2022-10-26T05:16:44.643Z,12.40
2022-10-26T05:19:11.563Z,12.50
2022-10-26T05:21:38.757Z,12.54
2022-10-26T05:24:10.039Z,12.55
2022-10-26T05:26:39.216Z,12.63
2022-10-26T05:29:06.070Z,12.59
2022-10-26T05:31:32.929Z,12.62
2022-10-26T05:33:59.866Z,12.68
2022-10-26T05:36:26.763Z,12.72
2022-10-26T05:38:53.641Z,12.84
2022-10-26T05:41:20.895Z,12.95
2022-10-26T05:43:48.700Z,13.05
2022-10-26T05:46:15.641Z,13.13
2022-10-26T05:48:42.745Z,13.18
2022-10-26T05:51:10.789Z,13.23
2022-10-26T05:53:37.739Z,13.36
2022-10-26T05:56:20.111Z,13.63
2022-10-26T05:58:48.360Z,13.79
2022-10-26T06:01:52.355Z,13.98
2022-10-26T06:04:38.899Z,14.19
2022-10-26T06:07:17.772Z,14.42
2022-10-26T06:09:45.662Z,14.63
2022-10-26T06:12:15.498Z,14.75
2022-10-26T06:14:45.738Z,14.92
2022-10-26T06:17:18.673Z,15.04
2022-10-26T06:19:54.628Z,15.21
2022-10-26T06:22:30.592Z,15.27
2022-10-26T06:25:35.106Z,15.28
2022-10-26T06:28:46.074Z,15.47
2022-10-26T06:31:15.619Z,15.61
2022-10-26T06:33:42.551Z,15.47
2022-10-26T06:36:15.180Z,15.72
2022-10-26T06:38:44.785Z,15.77
2022-10-26T06:41:15.670Z,15.70
2022-10-26T06:43:42.842Z,15.91
2022-10-26T06:46:31.924Z,16.09
2022-10-26T06:49:02.618Z,16.15
2022-10-26T06:51:34.834Z,16.07
2022-10-26T06:54:05.386Z,16.33
2022-10-26T06:56:32.877Z,16.21
2022-10-26T06:59:08.578Z,16.37
2022-10-26T07:01:35.755Z,16.55
2022-10-26T07:04:02.693Z,16.48
2022-10-26T07:06:30.088Z,16.64
2022-10-26T07:08:56.987Z,16.65
2022-10-26T07:11:23.972Z,16.75
2022-10-26T07:13:52.003Z,16.92
2022-10-26T07:16:19.115Z,17.08
2022-10-26T07:18:46.204Z,17.11
2022-10-26T07:21:13.090Z,17.06
2022-10-26T07:23:40.064Z,16.94
2022-10-26T07:26:06.927Z,17.02
2022-10-26T07:28:33.900Z,16.86
2022-10-26T07:31:00.774Z,16.87
2022-10-26T07:33:27.666Z,16.85
2022-10-26T07:35:55.557Z,16.95
2022-10-26T07:38:22.417Z,16.86
2022-10-26T07:40:50.629Z,16.93
2022-10-26T07:43:17.618Z,17.12
2022-10-26T07:45:44.592Z,17.25
2022-10-26T07:48:11.574Z,17.35
2022-10-26T07:50:38.502Z,17.35
2022-10-26T07:53:05.412Z,17.56
2022-10-26T07:55:32.338Z,17.76
2022-10-26T07:57:59.653Z,17.70
2022-10-26T08:00:28.904Z,17.83
2022-10-26T08:02:56.653Z,18.10
2022-10-26T08:05:23.666Z,18.11
2022-10-26T08:07:50.827Z,18.19
2022-10-26T08:10:18.064Z,18.48
2022-10-26T08:12:45.065Z,18.27
2022-10-26T08:15:13.067Z,18.12
2022-10-26T08:17:39.957Z,18.19
2022-10-26T08:20:07.477Z,18.33
2022-10-26T08:22:34.405Z,18.16
2022-10-26T08:25:01.331Z,18.11
2022-10-26T08:27:28.242Z,17.99
2022-10-26T08:29:55.230Z,17.97
2022-10-26T08:32:22.126Z,18.00
2022-10-26T08:34:49.026Z,17.76
2022-10-26T08:37:16.078Z,17.65
2022-10-26T08:39:43.016Z,17.55
2022-10-26T08:42:19.555Z,17.58
2022-10-26T08:44:47.690Z,17.86
2022-10-26T08:47:22.917Z,18.00
2022-10-26T08:50:06.619Z,18.05
2022-10-26T08:52:43.415Z,17.98
2022-10-26T08:55:16.374Z,17.80
2022-10-26T08:57:48.229Z,17.85
2022-10-26T09:00:23.586Z,18.16
2022-10-26T09:02:51.649Z,18.33
2022-10-26T09:05:23.375Z,18.58
2022-10-26T09:08:17.755Z,18.64
2022-10-26T09:10:54.003Z,18.73
2022-10-26T09:13:56.311Z,18.90
2022-10-26T09:16:54.268Z,19.09
2022-10-26T09:19:30.727Z,19.22
2022-10-26T09:22:04.702Z,19.23
2022-10-26T09:24:42.624Z,19.16
2022-10-26T09:27:20.362Z,19.17
2022-10-26T09:29:49.509Z,19.27
2022-10-26T09:32:39.333Z,19.33
2022-10-26T09:35:16.179Z,19.42
2022-10-26T09:37:52.045Z,19.17
2022-10-26T09:40:48.393Z,18.76
2022-10-26T09:43:25.005Z,18.95
2022-10-26T10:17:37.372Z,19.42
2022-10-26T10:20:12.839Z,19.59
2022-10-26T10:23:03.768Z,19.72
2022-10-26T10:25:39.989Z,19.83
2022-10-26T10:28:22.700Z,19.71
2022-10-26T10:30:59.528Z,19.44
2022-10-26T10:33:53.292Z,19.66
2022-10-26T10:36:22.703Z,19.59
2022-10-26T10:38:52.468Z,19.74
2022-10-26T10:41:29.300Z,19.83
2022-10-26T10:44:17.699Z,19.91
2022-10-26T10:46:44.948Z,20.16
2022-10-26T10:49:26.229Z,19.98
2022-10-26T10:51:54.068Z,20.02
2022-10-26T10:54:26.937Z,19.79
2022-10-26T10:56:58.025Z,20.06
2022-10-26T10:59:43.468Z,20.01
2022-10-26T11:02:47.286Z,19.78
2022-10-26T11:05:22.060Z,19.37
2022-10-26T11:08:15.876Z,19.21
2022-10-26T11:10:50.295Z,19.24
2022-10-26T11:13:38.560Z,19.19
2022-10-26T11:16:14.096Z,19.50
2022-10-26T11:18:49.077Z,19.74
2022-10-26T11:21:25.314Z,19.93
2022-10-26T11:24:27.532Z,20.13
2022-10-26T11:27:17.383Z,20.09
2022-10-26T11:29:57.458Z,19.80
2022-10-26T11:32:29.006Z,19.67
2022-10-26T11:35:24.645Z,19.61
2022-10-26T11:38:23.777Z,19.83
2022-10-26T11:41:21.648Z,19.79
2022-10-26T11:43:53.514Z,19.94
2022-10-26T11:46:44.458Z,20.06
2022-10-26T11:49:19.801Z,20.01
2022-10-26T11:52:16.989Z,20.01
2022-10-26T11:54:53.557Z,19.90
2022-10-26T11:57:22.175Z,19.87
2022-10-26T11:59:55.119Z,20.16
2022-10-26T12:02:24.368Z,20.31
2022-10-26T12:05:17.683Z,20.43
2022-10-26T12:08:12.311Z,20.10
2022-10-26T12:10:45.718Z,19.99
2022-10-26T12:13:42.245Z,19.76
2022-10-26T12:16:11.890Z,19.83
2022-10-26T12:19:00.546Z,19.52
2022-10-26T12:21:32.303Z,19.40
2022-10-26T12:24:00.238Z,19.45
2022-10-26T12:26:27.086Z,19.47
2022-10-26T12:29:02.860Z,19.44
2022-10-26T12:31:33.102Z,19.69
2022-10-26T12:34:00.859Z,19.67
2022-10-26T12:36:49.300Z,19.55
2022-10-26T12:39:52.732Z,19.41
2022-10-26T12:42:25.663Z,19.31
2022-10-26T12:44:53.525Z,19.20
2022-10-26T12:47:32.426Z,19.21
2022-10-26T12:50:08.335Z,19.10
2022-10-26T12:52:45.255Z,19.14
2022-10-26T12:55:12.074Z,19.18
2022-10-26T12:57:44.947Z,19.10
2022-10-26T13:00:18.536Z,19.27
2022-10-26T13:03:12.717Z,19.42
2022-10-26T13:05:57.536Z,19.45
2022-10-26T13:08:25.098Z,19.58
2022-10-26T13:11:13.294Z,19.68
2022-10-26T13:13:41.849Z,19.55
2022-10-26T13:16:12.491Z,19.62
2022-10-26T13:18:45.374Z,19.61
2022-10-26T13:21:15.484Z,19.64
2022-10-26T13:23:46.768Z,19.71
2022-10-26T13:26:18.836Z,19.63
2022-10-26T13:28:49.700Z,19.52
2022-10-26T13:31:28.715Z,19.57
2022-10-26T13:34:10.383Z,19.46
2022-10-26T13:36:45.696Z,19.54
2022-10-26T13:39:20.950Z,19.61
2022-10-26T13:41:51.460Z,19.58
2022-10-26T13:44:38.939Z,19.61
2022-10-26T13:47:12.416Z,19.52
2022-10-26T13:49:46.477Z,19.48
2022-10-26T13:52:27.627Z,19.40
2022-10-26T13:55:00.149Z,19.41
2022-10-26T13:57:35.471Z,19.37
2022-10-26T14:00:15.638Z,19.36
2022-10-26T14:02:43.759Z,19.41
2022-10-26T14:05:14.506Z,19.44
2022-10-26T14:07:56.700Z,19.42
2022-10-26T14:10:28.703Z,19.41
2022-10-26T14:12:56.341Z,19.37
2022-10-26T14:15:30.275Z,19.27
2022-10-26T14:17:58.844Z,19.25
2022-10-26T14:20:28.105Z,19.22
2022-10-26T14:22:55.150Z,19.20
2022-10-26T14:25:36.260Z,19.33
2022-10-26T14:28:32.616Z,19.49
2022-10-26T14:31:32.807Z,19.12
2022-10-26T14:34:04.205Z,18.75
2022-10-26T14:36:38.978Z,18.27
2022-10-26T14:39:15.381Z,17.92
2022-10-26T14:41:43.057Z,17.73
2022-10-26T14:44:22.598Z,17.58
2022-10-26T14:46:50.757Z,17.55
2022-10-26T14:49:24.276Z,17.39
2022-10-26T14:52:04.176Z,17.60
2022-10-26T14:54:32.335Z,17.58
2022-10-26T14:57:02.666Z,17.63
2022-10-26T14:59:31.749Z,17.22
2022-10-26T15:02:16.495Z,17.00
2022-10-26T15:05:01.789Z,17.08
2022-10-26T15:07:38.705Z,16.95
2022-10-26T15:10:06.325Z,16.84
2022-10-26T15:12:38.367Z,16.75
2022-10-26T15:15:19.684Z,16.62
2022-10-26T15:17:55.661Z,16.32
2022-10-26T15:20:25.760Z,16.32
2022-10-26T15:23:03.683Z,16.28
2022-10-26T15:25:34.380Z,16.35
2022-10-26T15:28:11.756Z,16.23
2022-10-26T15:30:38.926Z,16.24
2022-10-26T15:33:27.832Z,16.32
2022-10-26T15:36:16.229Z,16.24
2022-10-26T15:38:44.831Z,16.31
2022-10-26T15:41:27.552Z,16.13
2022-10-26T15:43:59.536Z,16.27
2022-10-26T15:46:30.829Z,16.27
2022-10-26T15:49:00.741Z,16.13
2022-10-26T15:51:29.454Z,16.13
2022-10-26T15:54:02.644Z,16.30
2022-10-26T15:56:30.721Z,16.34
2022-10-26T15:58:58.528Z,16.19
2022-10-26T16:01:27.746Z,16.19
2022-10-26T16:03:55.221Z,16.19
2022-10-26T16:06:29.087Z,16.16
2022-10-26T16:08:58.840Z,16.38
2022-10-26T16:11:26.091Z,16.12
2022-10-26T16:13:53.032Z,16.05
2022-10-26T16:16:22.239Z,16.12
2022-10-26T16:19:06.147Z,16.14
2022-10-26T16:21:39.099Z,15.92
2022-10-26T16:24:06.420Z,16.03
2022-10-26T16:26:33.463Z,15.89
2022-10-26T16:29:00.313Z,15.94
2022-10-26T16:31:27.208Z,16.12
2022-10-26T16:33:54.060Z,16.21
2022-10-26T16:36:20.983Z,16.18
2022-10-26T16:38:48.290Z,16.04
2022-10-26T16:41:17.454Z,16.09
2022-10-26T16:43:47.006Z,16.08
2022-10-26T16:46:20.134Z,16.13
2022-10-26T16:48:48.806Z,15.94
2022-10-26T16:51:24.659Z,16.04
2022-10-26T16:53:53.315Z,16.02
2022-10-26T16:56:23.307Z,16.00
2022-10-26T16:58:50.615Z,16.00
2022-10-26T17:01:19.696Z,15.93
2022-10-26T17:03:48.803Z,15.92
2022-10-26T17:06:16.540Z,15.74
2022-10-26T17:08:43.915Z,15.84
2022-10-26T17:11:13.400Z,15.90
2022-10-26T17:13:40.947Z,15.82
2022-10-26T17:16:14.394Z,15.69
2022-10-26T17:18:42.585Z,15.71
2022-10-26T17:21:11.178Z,15.67
2022-10-26T17:23:38.470Z,15.72
2022-10-26T17:26:08.099Z,15.45
2022-10-26T17:28:35.790Z,15.26
2022-10-26T17:31:07.941Z,15.38
2022-10-26T17:33:36.426Z,15.36
2022-10-26T17:36:05.355Z,15.45
2022-10-26T17:38:38.236Z,15.54
2022-10-26T17:41:13.412Z,15.55
2022-10-26T17:43:41.856Z,15.60
2022-10-26T17:46:14.658Z,15.41
2022-10-26T17:48:42.049Z,15.35
2022-10-26T17:51:13.185Z,15.24
2022-10-26T17:53:40.245Z,15.41
2022-10-26T17:56:16.732Z,15.57
2022-10-26T17:58:43.553Z,15.56
2022-10-26T18:01:12.879Z,15.31
2022-10-26T18:03:41.560Z,15.26
2022-10-26T18:06:09.321Z,15.21
2022-10-26T18:08:37.944Z,15.08
2022-10-26T18:11:06.375Z,15.00
2022-10-26T18:13:34.193Z,15.06
2022-10-26T18:16:04.369Z,15.33
2022-10-26T18:18:31.484Z,15.21
2022-10-26T18:21:10.029Z,15.13
2022-10-26T18:23:38.336Z,15.09
2022-10-26T18:26:11.465Z,15.13
2022-10-26T18:28:41.429Z,15.20
2022-10-26T18:31:11.319Z,15.29
2022-10-26T18:33:38.499Z,15.26
2022-10-26T18:36:06.979Z,15.16
2022-10-26T18:38:34.616Z,15.21
2022-10-26T18:41:02.211Z,15.22
2022-10-26T18:43:29.429Z,15.23
2022-10-26T18:46:07.800Z,15.27
2022-10-26T18:48:35.002Z,15.12
2022-10-26T18:51:03.548Z,15.17
2022-10-26T18:53:33.019Z,15.15
2022-10-26T18:56:02.068Z,15.10
2022-10-26T18:58:31.042Z,15.24
2022-10-26T19:01:12.304Z,15.24
2022-10-26T19:03:40.263Z,15.17
2022-10-26T19:06:08.871Z,15.17
2022-10-26T19:08:35.917Z,15.23
2022-10-26T19:11:04.505Z,15.28
2022-10-26T19:13:32.055Z,15.26
2022-10-26T19:16:04.051Z,15.27
2022-10-26T19:18:33.158Z,15.35
2022-10-26T19:21:12.022Z,15.37
2022-10-26T19:23:49.985Z,15.17
2022-10-26T19:26:19.766Z,15.16
2022-10-26T19:28:47.694Z,15.16
2022-10-26T19:31:15.158Z,15.21
2022-10-26T19:33:42.189Z,15.28
2022-10-26T19:36:12.471Z,15.15
2022-10-26T19:38:39.700Z,15.30
2022-10-26T19:41:09.993Z,15.29
2022-10-26T19:43:37.340Z,15.30
2022-10-26T19:46:15.835Z,15.31
2022-10-26T19:48:47.932Z,15.25
2022-10-26T19:51:14.910Z,15.26
2022-10-26T19:53:41.840Z,15.27
2022-10-26T19:56:13.560Z,15.11
2022-10-26T19:58:42.119Z,15.24
2022-10-26T20:01:11.680Z,15.20
2022-10-26T20:03:38.636Z,15.24
2022-10-26T20:06:13.082Z,14.92
2022-10-26T20:08:42.411Z,15.13
2022-10-26T20:11:14.652Z,15.03
2022-10-26T20:13:44.429Z,14.98
2022-10-26T20:16:12.276Z,14.95
2022-10-26T20:18:44.007Z,14.91
2022-10-26T20:21:15.419Z,15.05
2022-10-26T20:23:42.893Z,15.01
2022-10-26T20:26:11.732Z,14.86
2022-10-26T20:28:45.726Z,14.96
2022-10-26T20:31:13.453Z,15.00
2022-10-26T20:33:40.330Z,15.06
2022-10-26T20:36:07.589Z,15.14
2022-10-26T20:38:34.951Z,15.31
2022-10-26T20:41:06.109Z,15.35
2022-10-26T20:43:39.413Z,15.42
2022-10-26T20:46:10.130Z,15.47
2022-10-26T20:48:38.859Z,15.47
2022-10-26T20:51:19.669Z,15.45
2022-10-26T20:54:14.285Z,15.53
2022-10-26T20:56:42.182Z,15.56
2022-10-26T20:59:26.472Z,15.58
2022-10-26T21:01:53.490Z,15.64
2022-10-26T21:04:20.451Z,15.61
2022-10-26T21:06:47.301Z,15.64
2022-10-26T21:09:14.235Z,15.71
2022-10-26T21:11:41.331Z,15.67
2022-10-26T21:14:08.335Z,15.64
2022-10-26T21:16:35.266Z,15.65
2022-10-26T21:19:05.030Z,15.52
2022-10-26T21:21:32.093Z,15.53
2022-10-26T21:23:58.912Z,15.57
2022-10-26T21:26:25.948Z,15.40
2022-10-26T21:28:52.782Z,15.31
2022-10-26T21:31:21.338Z,15.08
2022-10-26T21:33:48.335Z,14.57
2022-10-26T21:36:15.812Z,14.54
2022-10-26T21:38:44.967Z,14.41
2022-10-26T21:41:17.252Z,14.41
2022-10-26T21:43:46.549Z,14.85
2022-10-26T21:46:14.225Z,14.64
2022-10-26T21:48:41.390Z,14.36
2022-10-26T21:51:11.803Z,14.06
2022-10-26T21:53:39.104Z,14.09
2022-10-26T21:56:25.285Z,14.42
2022-10-26T21:58:52.289Z,14.13
2022-10-26T22:01:21.821Z,13.77
2022-10-26T22:03:49.642Z,13.16
2022-10-26T22:06:21.417Z,13.56
2022-10-26T22:08:48.861Z,13.87
2022-10-26T22:11:18.490Z,14.00
2022-10-26T22:13:47.245Z,13.87
2022-10-26T22:16:17.127Z,13.72
2022-10-26T22:18:45.421Z,13.54
2022-10-26T22:21:14.090Z,13.22
2022-10-26T22:23:42.678Z,13.07
2022-10-26T22:26:12.808Z,13.12
2022-10-26T22:28:42.843Z,13.17
2022-10-26T22:31:22.446Z,13.18
2022-10-26T22:33:53.442Z,13.29
2022-10-26T22:36:20.798Z,13.35
2022-10-26T22:38:48.962Z,13.55
2022-10-26T22:41:16.693Z,13.25
2022-10-26T22:43:43.611Z,13.16
2022-10-26T22:46:16.500Z,13.47
2022-10-26T22:48:46.368Z,13.64
2022-10-26T22:51:15.876Z,13.67
2022-10-26T22:53:43.217Z,13.42
2022-10-26T22:56:12.299Z,13.21
2022-10-26T22:58:40.063Z,12.99
2022-10-26T23:01:10.777Z,12.85
2022-10-26T23:03:37.918Z,12.92
2022-10-26T23:06:09.190Z,12.86
2022-10-26T23:08:36.198Z,13.08
2022-10-26T23:11:07.112Z,13.18
2022-10-26T23:13:34.372Z,13.11
2022-10-26T23:16:09.337Z,12.97
2022-10-26T23:18:36.511Z,12.89
2022-10-26T23:21:04.664Z,12.80
2022-10-26T23:23:31.913Z,12.65
2022-10-26T23:26:03.450Z,12.59
2022-10-26T23:28:30.403Z,12.46
2022-10-26T23:30:57.543Z,12.37
2022-10-26T23:33:24.404Z,12.24
2022-10-26T23:35:52.017Z,12.11
2022-10-26T23:38:20.113Z,12.12
2022-10-26T23:41:07.113Z,12.40
2022-10-26T23:43:36.434Z,12.64
2022-10-26T23:46:03.859Z,12.92
2022-10-26T23:48:30.778Z,13.08
2022-10-26T23:50:57.966Z,13.28
2022-10-26T23:53:27.356Z,13.42
2022-10-26T23:55:54.302Z,13.56
2022-10-26T23:58:21.274Z,13.52
